createdAt,value
2023-04-14T00:02:54.322Z,10.99
2023-04-14T00:06:58.700Z,10.97
2023-04-14T00:10:59.421Z,11.01
2023-04-14T00:15:03.472Z,10.69
2023-04-14T00:19:03.992Z,10.84
2023-04-14T00:23:04.583Z,10.88
2023-04-14T00:27:05.319Z,10.96
2023-04-14T00:31:08.862Z,11.00
2023-04-14T00:35:10.268Z,11.01
2023-04-14T00:39:10.742Z,10.87
2023-04-14T00:43:11.169Z,11.12
2023-04-14T00:47:14.602Z,11.19
2023-04-14T00:51:16.156Z,11.12
2023-04-14T00:55:19.118Z,11.15
2023-04-14T00:59:20.617Z,11.26
2023-04-14T01:03:25.018Z,11.35
2023-04-14T01:07:28.830Z,11.44
2023-04-14T01:11:52.183Z,11.47
2023-04-14T01:16:00.612Z,11.41
2023-04-14T01:20:23.088Z,11.65
2023-04-14T01:24:43.602Z,11.60
2023-04-14T01:29:14.242Z,11.48
2023-04-14T01:33:25.730Z,11.69
2023-04-14T01:37:34.567Z,11.64
2023-04-14T01:41:37.356Z,11.52
2023-04-14T01:45:46.530Z,11.40
2023-04-14T01:49:55.884Z,11.40
2023-04-14T01:54:00.717Z,11.49
2023-04-14T01:58:06.942Z,11.63
2023-04-14T02:02:12.690Z,11.76
2023-04-14T02:06:17.300Z,11.63
2023-04-14T02:10:21.621Z,11.74
2023-04-14T02:14:24.748Z,11.39
2023-04-14T02:18:27.396Z,11.62
2023-04-14T02:22:31.319Z,11.71
2023-04-14T02:26:39.959Z,11.85
2023-04-14T02:30:45.377Z,11.85
2023-04-14T02:34:55.709Z,11.90
2023-04-14T02:39:03.875Z,11.77
2023-04-14T02:43:14.787Z,11.74
2023-04-14T02:47:27.064Z,11.81
2023-04-14T02:51:34.692Z,11.86
2023-04-14T02:55:40.009Z,12.01
2023-04-14T02:59:45.237Z,11.98
2023-04-14T03:03:47.141Z,11.79
2023-04-14T03:07:50.234Z,11.90
2023-04-14T03:11:58.419Z,11.81
2023-04-14T03:16:01.580Z,11.86
2023-04-14T03:20:04.355Z,11.73
2023-04-14T03:24:06.963Z,11.85
2023-04-14T03:28:16.804Z,11.76
2023-04-14T03:32:23.269Z,11.66
2023-04-14T03:36:26.486Z,11.70
2023-04-14T03:40:32.505Z,11.75
2023-04-14T03:44:39.103Z,11.79
2023-04-14T03:48:44.660Z,11.69
2023-04-14T03:52:53.830Z,11.60
2023-04-14T03:56:57.721Z,11.45
2023-04-14T04:01:05.729Z,11.52
2023-04-14T04:05:09.215Z,11.47
2023-04-14T04:09:15.036Z,11.41
2023-04-14T04:13:20.738Z,11.42
2023-04-14T04:17:29.630Z,11.30
2023-04-14T04:21:33.656Z,11.29
2023-04-14T04:25:35.205Z,11.29
2023-04-14T04:29:44.256Z,11.32
2023-04-14T04:33:49.723Z,11.29
2023-04-14T04:37:54.107Z,11.21
2023-04-14T04:42:04.237Z,11.26
2023-04-14T04:46:51.755Z,11.23
2023-04-14T04:50:55.833Z,11.28
2023-04-14T04:54:56.361Z,11.27
2023-04-14T04:58:57.208Z,11.45
2023-04-14T05:02:58.402Z,11.45
2023-04-14T05:07:01.973Z,11.69
2023-04-14T05:11:02.424Z,11.74
2023-04-14T05:15:03.271Z,11.80
2023-04-14T05:19:04.146Z,12.08
2023-04-14T05:23:07.564Z,12.32
2023-04-14T05:27:14.274Z,12.17
2023-04-14T05:31:15.348Z,12.44
2023-04-14T05:35:16.336Z,12.43
2023-04-14T05:39:20.085Z,12.45
2023-04-14T05:43:20.494Z,12.70
2023-04-14T05:47:21.305Z,12.52
2023-04-14T05:51:21.758Z,12.58
2023-04-14T05:55:25.151Z,12.57
2023-04-14T05:59:25.841Z,12.56
2023-04-14T06:03:26.643Z,12.69
2023-04-14T06:07:27.622Z,12.98
2023-04-14T06:11:33.585Z,12.96
2023-04-14T06:15:37.514Z,13.14
2023-04-14T06:19:38.094Z,13.22
2023-04-14T06:23:39.297Z,13.30
2023-04-14T06:27:42.504Z,13.08
2023-04-14T06:31:43.140Z,13.45
2023-04-14T06:35:43.858Z,13.31
2023-04-14T06:39:44.525Z,13.01
2023-04-14T06:43:50.474Z,13.14
2023-04-14T06:47:51.388Z,13.00
2023-04-14T06:51:52.006Z,13.29
2023-04-14T06:55:59.884Z,13.52
2023-04-14T07:00:04.506Z,13.50
2023-04-14T07:04:08.368Z,13.41
2023-04-14T07:08:09.044Z,13.35
2023-04-14T07:12:09.884Z,13.50
2023-04-14T07:16:13.654Z,13.86
2023-04-14T07:20:15.138Z,13.98
2023-04-14T07:24:16.211Z,14.47
2023-04-14T07:28:16.954Z,14.71
2023-04-14T07:32:20.526Z,14.53
2023-04-14T07:36:21.337Z,14.38
2023-04-14T07:40:22.028Z,14.61
2023-04-14T07:44:22.602Z,14.65
2023-04-14T07:48:26.282Z,14.69
2023-04-14T07:52:26.853Z,14.32
2023-04-14T07:56:27.329Z,14.03
2023-04-14T08:00:28.202Z,13.92
2023-04-14T08:04:31.890Z,13.92
2023-04-14T08:08:32.519Z,14.10
2023-04-14T08:12:33.146Z,14.35
2023-04-14T08:16:37.140Z,14.85
2023-04-14T08:20:40.661Z,14.31
2023-04-14T08:24:41.146Z,13.99
2023-04-14T08:28:42.168Z,14.94
2023-04-14T08:32:42.682Z,15.20
2023-04-14T08:36:47.711Z,15.21
2023-04-14T08:40:50.941Z,15.02
2023-04-14T08:44:52.896Z,14.88
2023-04-14T08:49:04.348Z,14.82
2023-04-14T08:53:13.695Z,14.68
2023-04-14T08:57:20.721Z,15.00
2023-04-14T09:01:22.544Z,14.90
2023-04-14T09:05:23.638Z,15.36
2023-04-14T09:09:28.138Z,15.44
2023-04-14T09:13:31.467Z,14.88
2023-04-14T09:17:34.683Z,14.48
2023-04-14T09:21:53.382Z,15.43
2023-04-14T09:25:59.684Z,15.44
2023-04-14T09:30:01.549Z,16.38
2023-04-14T09:34:02.860Z,16.82
2023-04-14T09:38:05.222Z,16.91
2023-04-14T09:42:08.619Z,17.35
2023-04-14T09:46:11.687Z,17.75
2023-04-14T09:50:13.836Z,17.77
2023-04-14T09:54:14.550Z,17.28
2023-04-14T09:58:24.621Z,17.59
2023-04-14T10:02:28.923Z,17.66
2023-04-14T10:06:31.633Z,17.90
2023-04-14T10:10:33.742Z,17.22
2023-04-14T10:14:37.455Z,17.14
2023-04-14T10:18:38.557Z,16.89
2023-04-14T10:22:41.134Z,16.64
2023-04-14T10:26:43.089Z,16.62
2023-04-14T10:30:47.313Z,16.78
2023-04-14T10:35:05.707Z,17.03
2023-04-14T10:39:10.701Z,16.81
2023-04-14T10:43:16.201Z,16.90
2023-04-14T10:47:27.815Z,16.85
2023-04-14T10:51:39.050Z,17.28
2023-04-14T10:55:56.969Z,17.83
2023-04-14T11:00:01.694Z,17.72
2023-04-14T11:04:21.685Z,17.86
2023-04-14T11:08:29.627Z,17.58
2023-04-14T11:12:31.839Z,17.65
2023-04-14T11:16:32.887Z,17.80
2023-04-14T11:20:36.275Z,18.00
2023-04-14T11:24:37.705Z,17.52
2023-04-14T11:28:41.003Z,17.39
2023-04-14T11:32:51.894Z,17.88
2023-04-14T11:36:56.490Z,16.72
2023-04-14T11:40:59.769Z,16.39
2023-04-14T11:45:03.599Z,16.00
2023-04-14T11:49:07.355Z,15.66
2023-04-14T11:53:14.910Z,15.52
2023-04-14T11:57:17.845Z,16.25
2023-04-14T12:01:25.383Z,16.26
2023-04-14T12:05:50.879Z,15.85
2023-04-14T12:20:27.426Z,15.83
2023-04-14T12:25:10.784Z,16.41
2023-04-14T12:29:56.815Z,16.04
2023-04-14T12:34:28.286Z,15.64
2023-04-14T12:45:15.427Z,14.25
2023-04-14T12:50:03.338Z,14.59
2023-04-14T12:55:13.680Z,14.60
2023-04-14T12:59:35.586Z,15.86
2023-04-14T13:03:47.869Z,15.79
2023-04-14T13:07:57.761Z,16.37
2023-04-14T13:11:58.315Z,16.84
2023-04-14T13:16:14.245Z,17.21
2023-04-14T13:20:47.312Z,16.83
2023-04-14T13:26:45.092Z,16.53
2023-04-14T13:30:41.893Z,15.51
2023-04-14T13:34:52.621Z,15.78
2023-04-14T13:38:55.902Z,15.36
2023-04-14T13:42:58.604Z,15.04
2023-04-14T13:47:22.858Z,15.10
2023-04-14T13:56:27.500Z,15.06
2023-04-14T14:00:27.987Z,15.06
2023-04-14T14:04:28.387Z,14.91
2023-04-14T14:08:30.410Z,14.46
2023-04-14T14:12:34.563Z,14.39
2023-04-14T14:16:37.027Z,14.22
2023-04-14T14:20:37.639Z,14.09
2023-04-14T14:24:37.830Z,13.71
2023-04-14T14:28:40.589Z,13.97
2023-04-14T14:32:40.794Z,13.76
2023-04-14T14:36:41.126Z,13.72
2023-04-14T14:40:41.339Z,13.76
2023-04-14T14:44:44.357Z,13.85
2023-04-14T14:48:44.586Z,14.07
2023-04-14T14:52:45.861Z,14.52
2023-04-14T14:56:46.010Z,14.36
2023-04-14T15:00:49.670Z,14.16
2023-04-14T15:04:50.068Z,13.50
2023-04-14T15:08:51.737Z,14.04
2023-04-14T15:12:52.038Z,13.92
2023-04-14T15:16:54.923Z,14.11
2023-04-14T15:20:56.977Z,14.26
2023-04-14T15:24:57.179Z,14.19
2023-04-14T15:28:57.342Z,14.16
2023-04-14T15:33:01.143Z,14.59
2023-04-14T15:37:01.605Z,14.69
2023-04-14T15:41:04.434Z,14.76
2023-04-14T15:45:04.776Z,14.49
2023-04-14T15:49:07.589Z,14.89
2023-04-14T15:53:08.372Z,15.38
2023-04-14T15:57:09.294Z,15.70
2023-04-14T16:01:12.736Z,15.53
2023-04-14T16:05:15.768Z,15.63
2023-04-14T16:09:16.197Z,15.57
2023-04-14T16:13:17.106Z,15.61
2023-04-14T16:17:17.591Z,15.83
2023-04-14T16:21:20.437Z,16.10
2023-04-14T16:25:22.834Z,16.02
2023-04-14T16:29:23.646Z,16.08
2023-04-14T16:33:24.073Z,15.41
2023-04-14T16:37:28.521Z,14.99
2023-04-14T16:41:29.037Z,14.94
2023-04-14T16:45:29.317Z,15.16
2023-04-14T16:49:29.723Z,15.30
2023-04-14T16:53:32.823Z,15.22
2023-04-14T16:57:33.386Z,15.19
2023-04-14T17:01:33.710Z,15.12
2023-04-14T17:05:34.046Z,14.59
2023-04-14T17:09:37.084Z,14.70
2023-04-14T17:13:37.479Z,14.98
2023-04-14T17:17:38.738Z,14.74
2023-04-14T17:21:39.256Z,14.76
2023-04-14T17:25:42.115Z,14.26
2023-04-14T17:29:42.844Z,14.24
2023-04-14T17:33:44.587Z,14.64
2023-04-14T17:37:44.857Z,14.63
2023-04-14T17:41:48.128Z,14.42
2023-04-14T17:45:50.633Z,14.27
2023-04-14T17:49:52.717Z,14.13
2023-04-14T17:53:53.912Z,14.19
2023-04-14T17:57:57.893Z,13.90
2023-04-14T18:01:58.174Z,13.89
2023-04-14T18:05:58.469Z,13.68
2023-04-14T18:09:58.784Z,13.53
2023-04-14T18:14:02.128Z,13.60
2023-04-14T18:18:03.201Z,13.60
2023-04-14T18:22:03.814Z,13.48
2023-04-14T18:30:12.364Z,13.72
2023-04-14T18:34:14.049Z,13.65
2023-04-14T18:38:14.254Z,13.82
2023-04-14T18:42:15.503Z,13.29
2023-04-14T18:46:18.490Z,13.24
2023-04-14T18:50:20.477Z,13.16
2023-04-14T18:54:21.569Z,13.02
2023-04-14T18:58:23.236Z,13.10
2023-04-14T19:02:26.423Z,12.85
2023-04-14T19:06:26.868Z,13.04
2023-04-14T19:10:27.964Z,13.01
2023-04-14T19:14:28.580Z,13.29
2023-04-14T19:18:31.410Z,13.23
2023-04-14T19:22:31.616Z,13.14
2023-04-14T19:26:34.564Z,13.30
2023-04-14T19:30:35.778Z,12.82
2023-04-14T19:34:38.685Z,13.30
2023-04-14T19:38:39.750Z,13.78
2023-04-14T19:42:40.081Z,13.73
2023-04-14T19:46:42.359Z,13.46
2023-04-14T19:50:45.708Z,13.40
2023-04-14T19:54:46.532Z,13.45
2023-04-14T19:58:46.784Z,13.25
2023-04-14T20:02:47.528Z,13.59
2023-04-14T20:06:50.734Z,13.31
2023-04-14T20:10:52.093Z,13.49
2023-04-14T20:14:52.606Z,13.42
2023-04-14T20:18:53.085Z,13.50
2023-04-14T20:22:57.453Z,13.35
2023-04-14T20:26:57.795Z,13.45
2023-04-14T20:30:58.502Z,13.46
2023-04-14T20:34:58.932Z,13.40
2023-04-14T20:39:01.979Z,13.27
2023-04-14T20:43:02.617Z,13.41
2023-04-14T20:47:03.950Z,13.54
2023-04-14T20:51:04.483Z,13.52
2023-04-14T20:55:13.628Z,13.27
2023-04-14T20:59:17.092Z,13.26
2023-04-14T21:03:17.706Z,13.30
2023-04-14T21:07:18.347Z,13.18
2023-04-14T21:11:22.850Z,13.22
2023-04-14T21:15:50.560Z,13.31
2023-04-14T21:19:46.737Z,13.22
2023-04-14T21:23:48.777Z,13.25
2023-04-14T21:27:52.301Z,13.13
2023-04-14T21:31:54.329Z,13.10
2023-04-14T21:35:55.815Z,13.08
2023-04-14T21:39:59.480Z,13.30
2023-04-14T21:44:02.937Z,13.23
2023-04-14T21:48:05.474Z,13.41
2023-04-14T21:52:06.032Z,13.30
2023-04-14T21:56:10.353Z,12.90
2023-04-14T22:00:18.323Z,13.01
2023-04-14T22:04:33.107Z,13.10
2023-04-14T22:08:36.163Z,13.00
2023-04-14T22:12:37.718Z,13.08
2023-04-14T22:16:41.254Z,12.58
2023-04-14T22:20:41.545Z,12.94
2023-04-14T22:24:41.671Z,12.93
2023-04-14T22:28:42.194Z,13.04
2023-04-14T22:32:45.002Z,13.06
2023-04-14T22:36:45.409Z,12.94
2023-04-14T22:40:52.333Z,12.91
2023-04-14T22:45:00.157Z,13.22
2023-04-14T22:49:03.752Z,13.18
2023-04-14T22:53:04.044Z,13.12
2023-04-14T22:57:04.264Z,12.90
2023-04-14T23:01:15.522Z,12.60
2023-04-14T23:05:24.548Z,12.80
2023-04-14T23:09:24.851Z,12.84
2023-04-14T23:13:25.350Z,12.75
2023-04-14T23:17:25.744Z,12.74
2023-04-14T23:21:28.683Z,12.71
2023-04-14T23:25:29.697Z,12.60
2023-04-14T23:29:29.974Z,12.83
2023-04-14T23:33:30.499Z,12.84
2023-04-14T23:37:33.495Z,12.77
2023-04-14T23:41:34.007Z,12.58
2023-04-14T23:45:37.436Z,12.62
2023-04-14T23:49:37.734Z,12.90
2023-04-14T23:53:40.489Z,12.93
2023-04-14T23:57:40.934Z,12.96
